sensor_id;sensor_type;location;lat;lon;timestamp;pressure;altitude;pressure_sealevel;temperature;humidity
51067;BME280;37112;45.892;-123.962;2023-06-01T00:00:32;101962.55;;;15.54;63.66
51067;BME280;37112;45.892;-123.962;2023-06-01T00:03:09;101959.74;;;15.46;63.49
51067;BME280;37112;45.892;-123.962;2023-06-01T00:05:26;101959.45;;;15.42;63.24
51067;BME280;37112;45.892;-123.962;2023-06-01T00:07:43;101960.01;;;15.37;63.51
51067;BME280;37112;45.892;-123.962;2023-06-01T00:10:08;101955.37;;;15.42;63.49
51067;BME280;37112;45.892;-123.962;2023-06-01T00:12:31;101951.25;;;15.52;63.80
51067;BME280;37112;45.892;-123.962;2023-06-01T00:14:53;101951.12;;;15.63;62.47
51067;BME280;37112;45.892;-123.962;2023-06-01T00:17:11;101950.05;;;15.68;61.84
51067;BME280;37112;45.892;-123.962;2023-06-01T00:19:24;101950.97;;;15.72;61.45
51067;BME280;37112;45.892;-123.962;2023-06-01T00:21:46;101953.41;;;15.78;61.26
51067;BME280;37112;45.892;-123.962;2023-06-01T00:24:04;101953.05;;;15.86;60.74
51067;BME280;37112;45.892;-123.962;2023-06-01T00:26:27;101950.66;;;15.90;60.45
51067;BME280;37112;45.892;-123.962;2023-06-01T00:28:51;101949.14;;;15.94;60.58
51067;BME280;37112;45.892;-123.962;2023-06-01T00:31:08;101952.16;;;15.99;60.29
51067;BME280;37112;45.892;-123.962;2023-06-01T00:33:29;101957.03;;;16.01;60.15
51067;BME280;37112;45.892;-123.962;2023-06-01T00:36:01;101954.34;;;16.06;60.30
51067;BME280;37112;45.892;-123.962;2023-06-01T00:38:20;101952.30;;;16.02;59.65
51067;BME280;37112;45.892;-123.962;2023-06-01T00:40:35;101954.10;;;15.99;59.98
51067;BME280;37112;45.892;-123.962;2023-06-01T00:43:01;101956.80;;;15.97;59.71
51067;BME280;37112;45.892;-123.962;2023-06-01T00:45:33;101956.31;;;15.85;59.78
51067;BME280;37112;45.892;-123.962;2023-06-01T00:47:56;101953.58;;;15.78;60.49
51067;BME280;37112;45.892;-123.962;2023-06-01T00:50:12;101953.05;;;15.81;61.34
51067;BME280;37112;45.892;-123.962;2023-06-01T00:52:37;101950.31;;;15.89;61.95
51067;BME280;37112;45.892;-123.962;2023-06-01T00:55:02;101951.00;;;15.92;61.85
51067;BME280;37112;45.892;-123.962;2023-06-01T00:57:33;101948.59;;;15.96;62.02
51067;BME280;37112;45.892;-123.962;2023-06-01T01:00:05;101946.85;;;16.00;61.82
51067;BME280;37112;45.892;-123.962;2023-06-01T01:02:22;101948.23;;;16.01;62.24
51067;BME280;37112;45.892;-123.962;2023-06-01T01:04:47;101944.01;;;16.05;61.96
51067;BME280;37112;45.892;-123.962;2023-06-01T01:07:15;101943.98;;;16.06;61.64
51067;BME280;37112;45.892;-123.962;2023-06-01T01:09:53;101945.61;;;16.05;61.28
51067;BME280;37112;45.892;-123.962;2023-06-01T01:12:21;101946.66;;;15.93;60.47
51067;BME280;37112;45.892;-123.962;2023-06-01T01:14:43;101943.05;;;15.83;60.93
51067;BME280;37112;45.892;-123.962;2023-06-01T01:17:13;101942.41;;;15.80;60.91
51067;BME280;37112;45.892;-123.962;2023-06-01T01:22:12;101942.34;;;15.73;61.07
51067;BME280;37112;45.892;-123.962;2023-06-01T01:24:36;101942.12;;;15.71;61.03
51067;BME280;37112;45.892;-123.962;2023-06-01T01:27:14;101941.67;;;15.70;61.07
51067;BME280;37112;45.892;-123.962;2023-06-01T01:29:39;101940.29;;;15.61;61.11
51067;BME280;37112;45.892;-123.962;2023-06-01T01:31:57;101943.44;;;15.57;60.95
51067;BME280;37112;45.892;-123.962;2023-06-01T01:34:22;101943.52;;;15.48;60.02
51067;BME280;37112;45.892;-123.962;2023-06-01T01:36:49;101946.77;;;15.34;59.74
51067;BME280;37112;45.892;-123.962;2023-06-01T01:39:10;101948.17;;;15.27;59.85
51067;BME280;37112;45.892;-123.962;2023-06-01T01:41:39;101947.61;;;15.16;59.26
51067;BME280;37112;45.892;-123.962;2023-06-01T01:44:00;101947.81;;;15.06;59.77
51067;BME280;37112;45.892;-123.962;2023-06-01T01:46:35;101949.38;;;14.95;60.06
51067;BME280;37112;45.892;-123.962;2023-06-01T01:49:14;101949.88;;;14.96;60.85
51067;BME280;37112;45.892;-123.962;2023-06-01T01:51:44;101946.02;;;14.95;60.60
51067;BME280;37112;45.892;-123.962;2023-06-01T01:54:11;101944.25;;;14.84;60.36
51067;BME280;37112;45.892;-123.962;2023-06-01T01:56:31;101942.70;;;14.78;60.44
51067;BME280;37112;45.892;-123.962;2023-06-01T01:58:50;101946.67;;;14.69;60.24
51067;BME280;37112;45.892;-123.962;2023-06-01T02:01:12;101946.74;;;14.60;60.47
51067;BME280;37112;45.892;-123.962;2023-06-01T02:03:45;101948.65;;;14.52;60.80
51067;BME280;37112;45.892;-123.962;2023-06-01T02:06:06;101949.27;;;14.48;61.25
51067;BME280;37112;45.892;-123.962;2023-06-01T02:08:23;101945.16;;;14.48;61.39
51067;BME280;37112;45.892;-123.962;2023-06-01T02:10:54;101950.52;;;14.45;60.88
51067;BME280;37112;45.892;-123.962;2023-06-01T02:13:13;101948.90;;;14.45;61.47
51067;BME280;37112;45.892;-123.962;2023-06-01T02:15:28;101948.09;;;14.50;62.07
51067;BME280;37112;45.892;-123.962;2023-06-01T02:17:46;101944.36;;;14.49;61.74
51067;BME280;37112;45.892;-123.962;2023-06-01T02:20:14;101943.17;;;14.45;61.10
51067;BME280;37112;45.892;-123.962;2023-06-01T02:22:31;101942.70;;;14.36;61.35
51067;BME280;37112;45.892;-123.962;2023-06-01T02:24:53;101942.23;;;14.29;61.80
51067;BME280;37112;45.892;-123.962;2023-06-01T02:27:23;101944.05;;;14.26;62.03
51067;BME280;37112;45.892;-123.962;2023-06-01T02:29:46;101947.53;;;14.25;62.44
51067;BME280;37112;45.892;-123.962;2023-06-01T02:32:09;101945.63;;;14.20;62.74
51067;BME280;37112;45.892;-123.962;2023-06-01T02:34:34;101947.25;;;14.18;62.53
51067;BME280;37112;45.892;-123.962;2023-06-01T02:36:59;101943.20;;;14.11;62.92
51067;BME280;37112;45.892;-123.962;2023-06-01T02:39:22;101940.55;;;14.07;63.11
51067;BME280;37112;45.892;-123.962;2023-06-01T02:41:53;101941.88;;;14.04;63.45
51067;BME280;37112;45.892;-123.962;2023-06-01T02:44:25;101938.96;;;14.02;63.49
51067;BME280;37112;45.892;-123.962;2023-06-01T02:46:47;101939.04;;;14.01;63.26
51067;BME280;37112;45.892;-123.962;2023-06-01T02:49:10;101936.31;;;13.98;63.40
51067;BME280;37112;45.892;-123.962;2023-06-01T02:51:24;101934.71;;;13.96;63.36
51067;BME280;37112;45.892;-123.962;2023-06-01T02:53:56;101931.66;;;13.93;62.99
51067;BME280;37112;45.892;-123.962;2023-06-01T02:56:18;101928.40;;;13.90;62.89
51067;BME280;37112;45.892;-123.962;2023-06-01T02:58:50;101928.68;;;13.86;63.14
51067;BME280;37112;45.892;-123.962;2023-06-01T03:01:08;101931.42;;;13.85;63.33
51067;BME280;37112;45.892;-123.962;2023-06-01T03:03:31;101930.70;;;13.88;63.71
51067;BME280;37112;45.892;-123.962;2023-06-01T03:06:05;101929.63;;;13.85;63.92
51067;BME280;37112;45.892;-123.962;2023-06-01T03:08:37;101928.52;;;13.80;64.33
51067;BME280;37112;45.892;-123.962;2023-06-01T03:11:07;101933.02;;;13.71;63.21
51067;BME280;37112;45.892;-123.962;2023-06-01T03:13:24;101933.49;;;13.66;63.63
51067;BME280;37112;45.892;-123.962;2023-06-01T03:15:45;101933.11;;;13.60;64.25
51067;BME280;37112;45.892;-123.962;2023-06-01T03:18:08;101927.30;;;13.48;64.06
51067;BME280;37112;45.892;-123.962;2023-06-01T03:20:34;101928.17;;;13.36;63.69
51067;BME280;37112;45.892;-123.962;2023-06-01T03:23:06;101935.34;;;13.30;64.05
51067;BME280;37112;45.892;-123.962;2023-06-01T03:25:33;101934.67;;;13.23;64.03
51067;BME280;37112;45.892;-123.962;2023-06-01T03:27:52;101934.98;;;13.21;64.57
51067;BME280;37112;45.892;-123.962;2023-06-01T03:30:22;101935.61;;;13.13;64.88
51067;BME280;37112;45.892;-123.962;2023-06-01T03:32:47;101938.49;;;13.05;64.82
51067;BME280;37112;45.892;-123.962;2023-06-01T03:35:04;101937.73;;;13.04;65.02
51067;BME280;37112;45.892;-123.962;2023-06-01T03:37:36;101930.55;;;12.98;65.51
51067;BME280;37112;45.892;-123.962;2023-06-01T03:40:00;101933.91;;;12.93;65.29
51067;BME280;37112;45.892;-123.962;2023-06-01T03:42:38;101932.10;;;12.94;65.47
51067;BME280;37112;45.892;-123.962;2023-06-01T03:45:09;101930.09;;;12.91;65.32
51067;BME280;37112;45.892;-123.962;2023-06-01T03:47:31;101930.42;;;12.92;65.19
51067;BME280;37112;45.892;-123.962;2023-06-01T03:50:02;101930.88;;;12.90;65.03
51067;BME280;37112;45.892;-123.962;2023-06-01T03:52:33;101934.08;;;12.90;65.04
51067;BME280;37112;45.892;-123.962;2023-06-01T03:54:53;101931.30;;;12.92;65.15
51067;BME280;37112;45.892;-123.962;2023-06-01T03:57:34;101933.14;;;12.94;65.14
51067;BME280;37112;45.892;-123.962;2023-06-01T03:59:57;101936.11;;;12.98;65.21
51067;BME280;37112;45.892;-123.962;2023-06-01T04:02:20;101936.91;;;13.00;65.21
51067;BME280;37112;45.892;-123.962;2023-06-01T04:04:38;101934.19;;;13.00;65.19
51067;BME280;37112;45.892;-123.962;2023-06-01T04:07:02;101940.15;;;13.02;65.22
51067;BME280;37112;45.892;-123.962;2023-06-01T04:09:34;101939.98;;;13.02;65.17
51067;BME280;37112;45.892;-123.962;2023-06-01T04:11:52;101935.03;;;13.01;65.10
51067;BME280;37112;45.892;-123.962;2023-06-01T04:14:15;101937.71;;;12.98;65.00
51067;BME280;37112;45.892;-123.962;2023-06-01T04:16:28;101937.23;;;12.94;64.99
51067;BME280;37112;45.892;-123.962;2023-06-01T04:18:39;101935.63;;;12.91;64.93
51067;BME280;37112;45.892;-123.962;2023-06-01T04:21:00;101934.88;;;12.89;65.11
51067;BME280;37112;45.892;-123.962;2023-06-01T04:23:12;101937.46;;;12.87;65.22
51067;BME280;37112;45.892;-123.962;2023-06-01T04:25:24;101937.85;;;12.87;65.31
51067;BME280;37112;45.892;-123.962;2023-06-01T04:27:45;101942.81;;;12.87;65.46
51067;BME280;37112;45.892;-123.962;2023-06-01T04:29:58;101941.08;;;12.86;65.39
51067;BME280;37112;45.892;-123.962;2023-06-01T04:32:10;101944.05;;;12.84;65.47
51067;BME280;37112;45.892;-123.962;2023-06-01T04:34:32;101945.98;;;12.81;65.44
51067;BME280;37112;45.892;-123.962;2023-06-01T04:36:48;101949.90;;;12.78;65.49
51067;BME280;37112;45.892;-123.962;2023-06-01T04:39:00;101952.32;;;12.77;65.61
51067;BME280;37112;45.892;-123.962;2023-06-01T04:41:17;101952.60;;;12.75;65.77
51067;BME280;37112;45.892;-123.962;2023-06-01T04:43:32;101952.35;;;12.73;65.84
51067;BME280;37112;45.892;-123.962;2023-06-01T04:45:45;101953.88;;;12.71;65.90
51067;BME280;37112;45.892;-123.962;2023-06-01T04:47:56;101953.38;;;12.67;65.96
51067;BME280;37112;45.892;-123.962;2023-06-01T04:50:18;101949.27;;;12.64;66.11
51067;BME280;37112;45.892;-123.962;2023-06-01T04:52:31;101948.54;;;12.62;66.28
51067;BME280;37112;45.892;-123.962;2023-06-01T04:54:43;101945.76;;;12.60;66.34
51067;BME280;37112;45.892;-123.962;2023-06-01T04:56:56;101943.77;;;12.58;66.38
51067;BME280;37112;45.892;-123.962;2023-06-01T04:59:08;101943.40;;;12.55;66.35
51067;BME280;37112;45.892;-123.962;2023-06-01T05:01:21;101942.84;;;12.52;66.44
51067;BME280;37112;45.892;-123.962;2023-06-01T05:03:35;101946.05;;;12.49;66.52
51067;BME280;37112;45.892;-123.962;2023-06-01T05:05:47;101949.41;;;12.46;66.53
51067;BME280;37112;45.892;-123.962;2023-06-01T05:07:59;101953.91;;;12.42;66.37
51067;BME280;37112;45.892;-123.962;2023-06-01T05:10:12;101954.73;;;12.37;66.43
51067;BME280;37112;45.892;-123.962;2023-06-01T05:12:26;101956.97;;;12.32;66.52
51067;BME280;37112;45.892;-123.962;2023-06-01T05:14:38;101959.48;;;12.28;66.55
51067;BME280;37112;45.892;-123.962;2023-06-01T05:16:51;101958.45;;;12.24;66.64
51067;BME280;37112;45.892;-123.962;2023-06-01T05:19:04;101962.57;;;12.20;66.61
51067;BME280;37112;45.892;-123.962;2023-06-01T05:21:18;101961.63;;;12.15;66.51
51067;BME280;37112;45.892;-123.962;2023-06-01T05:23:31;101961.16;;;12.10;66.63
51067;BME280;37112;45.892;-123.962;2023-06-01T05:25:43;101959.44;;;12.07;66.77
51067;BME280;37112;45.892;-123.962;2023-06-01T05:27:56;101965.30;;;12.03;66.92
51067;BME280;37112;45.892;-123.962;2023-06-01T05:30:11;101960.77;;;11.98;67.02
51067;BME280;37112;45.892;-123.962;2023-06-01T05:32:26;101959.09;;;11.93;67.09
51067;BME280;37112;45.892;-123.962;2023-06-01T05:34:49;101961.40;;;11.89;67.14
51067;BME280;37112;45.892;-123.962;2023-06-01T05:37:03;101958.42;;;11.85;67.22
51067;BME280;37112;45.892;-123.962;2023-06-01T05:39:17;101950.23;;;11.82;67.27
51067;BME280;37112;45.892;-123.962;2023-06-01T05:41:30;101950.89;;;11.79;67.28
51067;BME280;37112;45.892;-123.962;2023-06-01T05:43:41;101947.23;;;11.75;67.38
51067;BME280;37112;45.892;-123.962;2023-06-01T05:45:54;101948.55;;;11.69;67.49
51067;BME280;37112;45.892;-123.962;2023-06-01T05:48:07;101947.38;;;11.65;67.47
51067;BME280;37112;45.892;-123.962;2023-06-01T05:50:31;101946.09;;;11.59;67.45
51067;BME280;37112;45.892;-123.962;2023-06-01T05:52:48;101946.36;;;11.54;67.62
51067;BME280;37112;45.892;-123.962;2023-06-01T05:55:01;101946.14;;;11.51;67.67
51067;BME280;37112;45.892;-123.962;2023-06-01T05:57:15;101944.64;;;11.49;67.81
51067;BME280;37112;45.892;-123.962;2023-06-01T05:59:31;101941.58;;;11.47;67.96
51067;BME280;37112;45.892;-123.962;2023-06-01T06:01:44;101939.58;;;11.44;67.92
51067;BME280;37112;45.892;-123.962;2023-06-01T06:03:57;101939.14;;;11.42;68.11
51067;BME280;37112;45.892;-123.962;2023-06-01T06:06:17;101939.95;;;11.40;68.13
51067;BME280;37112;45.892;-123.962;2023-06-01T06:08:41;101940.09;;;11.37;68.28
51067;BME280;37112;45.892;-123.962;2023-06-01T06:11:02;101941.33;;;11.34;68.22
51067;BME280;37112;45.892;-123.962;2023-06-01T06:13:17;101942.77;;;11.30;68.23
51067;BME280;37112;45.892;-123.962;2023-06-01T06:15:32;101944.73;;;11.27;68.27
51067;BME280;37112;45.892;-123.962;2023-06-01T06:17:53;101945.45;;;11.23;68.32
51067;BME280;37112;45.892;-123.962;2023-06-01T06:20:05;101946.48;;;11.20;68.34
51067;BME280;37112;45.892;-123.962;2023-06-01T06:22:19;101943.15;;;11.16;68.35
51067;BME280;37112;45.892;-123.962;2023-06-01T06:24:31;101944.69;;;11.10;68.21
51067;BME280;37112;45.892;-123.962;2023-06-01T06:26:42;101944.11;;;11.04;68.15
51067;BME280;37112;45.892;-123.962;2023-06-01T06:28:56;101944.47;;;10.97;68.30
51067;BME280;37112;45.892;-123.962;2023-06-01T06:31:10;101943.42;;;10.93;68.42
51067;BME280;37112;45.892;-123.962;2023-06-01T06:33:22;101945.44;;;10.88;68.57
51067;BME280;37112;45.892;-123.962;2023-06-01T06:35:35;101946.54;;;10.83;68.60
51067;BME280;37112;45.892;-123.962;2023-06-01T06:37:47;101947.11;;;10.79;68.73
51067;BME280;37112;45.892;-123.962;2023-06-01T06:39:59;101948.38;;;10.75;68.94
51067;BME280;37112;45.892;-123.962;2023-06-01T06:42:17;101943.25;;;10.71;69.07
51067;BME280;37112;45.892;-123.962;2023-06-01T06:44:40;101943.41;;;10.68;69.27
51067;BME280;37112;45.892;-123.962;2023-06-01T06:46:57;101949.38;;;10.65;69.46
51067;BME280;37112;45.892;-123.962;2023-06-01T06:49:29;101944.65;;;10.64;69.67
51067;BME280;37112;45.892;-123.962;2023-06-01T06:51:44;101945.33;;;10.65;69.84
51067;BME280;37112;45.892;-123.962;2023-06-01T06:54:05;101947.30;;;10.64;70.07
51067;BME280;37112;45.892;-123.962;2023-06-01T06:56:26;101948.19;;;10.64;70.16
51067;BME280;37112;45.892;-123.962;2023-06-01T06:58:49;101947.95;;;10.65;70.27
51067;BME280;37112;45.892;-123.962;2023-06-01T07:01:23;101944.02;;;10.66;70.43
51067;BME280;37112;45.892;-123.962;2023-06-01T07:03:40;101945.23;;;10.67;70.64
51067;BME280;37112;45.892;-123.962;2023-06-01T07:05:54;101944.17;;;10.67;70.93
51067;BME280;37112;45.892;-123.962;2023-06-01T07:08:14;101939.88;;;10.67;71.08
51067;BME280;37112;45.892;-123.962;2023-06-01T07:10:29;101937.15;;;10.68;71.12
51067;BME280;37112;45.892;-123.962;2023-06-01T07:12:58;101939.74;;;10.70;71.20
51067;BME280;37112;45.892;-123.962;2023-06-01T07:15:12;101941.13;;;10.71;71.23
51067;BME280;37112;45.892;-123.962;2023-06-01T07:17:28;101941.94;;;10.72;71.46
51067;BME280;37112;45.892;-123.962;2023-06-01T07:19:42;101938.54;;;10.72;71.35
51067;BME280;37112;45.892;-123.962;2023-06-01T07:22:00;101934.63;;;10.72;71.49
51067;BME280;37112;45.892;-123.962;2023-06-01T07:24:18;101937.45;;;10.73;71.54
51067;BME280;37112;45.892;-123.962;2023-06-01T07:26:40;101933.15;;;10.73;71.76
51067;BME280;37112;45.892;-123.962;2023-06-01T07:28:57;101936.27;;;10.75;71.81
51067;BME280;37112;45.892;-123.962;2023-06-01T07:31:28;101935.67;;;10.77;71.81
51067;BME280;37112;45.892;-123.962;2023-06-01T07:33:49;101930.39;;;10.79;71.98
51067;BME280;37112;45.892;-123.962;2023-06-01T07:36:13;101926.89;;;10.82;72.08
51067;BME280;37112;45.892;-123.962;2023-06-01T07:38:36;101925.16;;;10.84;72.17
51067;BME280;37112;45.892;-123.962;2023-06-01T07:40:53;101921.52;;;10.86;72.38
51067;BME280;37112;45.892;-123.962;2023-06-01T07:43:11;101916.95;;;10.88;72.32
51067;BME280;37112;45.892;-123.962;2023-06-01T07:45:29;101915.27;;;10.91;72.34
51067;BME280;37112;45.892;-123.962;2023-06-01T07:47:46;101917.09;;;10.93;72.30
51067;BME280;37112;45.892;-123.962;2023-06-01T07:50:01;101915.95;;;10.95;72.35
51067;BME280;37112;45.892;-123.962;2023-06-01T07:52:33;101916.74;;;10.96;72.38
51067;BME280;37112;45.892;-123.962;2023-06-01T07:54:52;101914.42;;;10.97;72.32
51067;BME280;37112;45.892;-123.962;2023-06-01T07:57:16;101913.41;;;10.99;72.57
51067;BME280;37112;45.892;-123.962;2023-06-01T07:59:31;101918.65;;;11.01;72.60
51067;BME280;37112;45.892;-123.962;2023-06-01T08:02:02;101918.61;;;11.02;72.61
51067;BME280;37112;45.892;-123.962;2023-06-01T08:04:17;101916.54;;;11.04;72.69
51067;BME280;37112;45.892;-123.962;2023-06-01T08:06:31;101918.73;;;11.07;72.66
51067;BME280;37112;45.892;-123.962;2023-06-01T08:08:57;101915.45;;;11.08;72.71
51067;BME280;37112;45.892;-123.962;2023-06-01T08:11:29;101912.30;;;11.10;72.79
51067;BME280;37112;45.892;-123.962;2023-06-01T08:14:00;101907.77;;;11.12;72.84
51067;BME280;37112;45.892;-123.962;2023-06-01T08:16:19;101906.66;;;11.13;72.81
51067;BME280;37112;45.892;-123.962;2023-06-01T08:18:46;101907.17;;;11.13;72.75
51067;BME280;37112;45.892;-123.962;2023-06-01T08:21:18;101905.86;;;11.15;72.98
51067;BME280;37112;45.892;-123.962;2023-06-01T08:23:43;101904.77;;;11.16;72.97
51067;BME280;37112;45.892;-123.962;2023-06-01T08:26:02;101906.38;;;11.15;72.89
51067;BME280;37112;45.892;-123.962;2023-06-01T08:28:25;101906.41;;;11.15;72.86
51067;BME280;37112;45.892;-123.962;2023-06-01T08:30:56;101907.38;;;11.13;72.83
51067;BME280;37112;45.892;-123.962;2023-06-01T08:33:19;101902.64;;;11.11;72.90
51067;BME280;37112;45.892;-123.962;2023-06-01T08:35:50;101901.71;;;11.09;72.65
51067;BME280;37112;45.892;-123.962;2023-06-01T08:38:11;101904.02;;;11.05;72.49
51067;BME280;37112;45.892;-123.962;2023-06-01T08:40:28;101908.02;;;11.04;72.68
51067;BME280;37112;45.892;-123.962;2023-06-01T08:43:03;101904.44;;;11.01;72.68
51067;BME280;37112;45.892;-123.962;2023-06-01T08:45:35;101902.29;;;10.98;72.60
51067;BME280;37112;45.892;-123.962;2023-06-01T08:47:58;101899.47;;;10.94;72.64
51067;BME280;37112;45.892;-123.962;2023-06-01T08:50:20;101898.60;;;10.90;72.78
51067;BME280;37112;45.892;-123.962;2023-06-01T08:52:43;101889.98;;;10.87;72.89
51067;BME280;37112;45.892;-123.962;2023-06-01T08:55:14;101891.52;;;10.86;72.79
51067;BME280;37112;45.892;-123.962;2023-06-01T08:57:37;101893.02;;;10.84;72.97
51067;BME280;37112;45.892;-123.962;2023-06-01T09:00:10;101894.75;;;10.81;72.88
51067;BME280;37112;45.892;-123.962;2023-06-01T09:02:33;101894.64;;;10.76;72.84
51067;BME280;37112;45.892;-123.962;2023-06-01T09:04:49;101895.36;;;10.73;72.80
51067;BME280;37112;45.892;-123.962;2023-06-01T09:07:12;101895.33;;;10.70;73.03
51067;BME280;37112;45.892;-123.962;2023-06-01T09:09:43;101896.92;;;10.67;72.98
51067;BME280;37112;45.892;-123.962;2023-06-01T09:12:18;101901.73;;;10.63;73.04
51067;BME280;37112;45.892;-123.962;2023-06-01T09:14:49;101902.36;;;10.56;73.01
51067;BME280;37112;45.892;-123.962;2023-06-01T09:17:13;101903.07;;;10.53;73.24
51067;BME280;37112;45.892;-123.962;2023-06-01T09:19:44;101903.71;;;10.51;73.45
51067;BME280;37112;45.892;-123.962;2023-06-01T09:22:08;101904.53;;;10.49;73.37
51067;BME280;37112;45.892;-123.962;2023-06-01T09:24:30;101909.80;;;10.46;73.50
51067;BME280;37112;45.892;-123.962;2023-06-01T09:26:51;101904.11;;;10.42;73.49
51067;BME280;37112;45.892;-123.962;2023-06-01T09:29:17;101901.91;;;10.40;73.55
51067;BME280;37112;45.892;-123.962;2023-06-01T09:31:41;101908.45;;;10.38;73.57
51067;BME280;37112;45.892;-123.962;2023-06-01T09:34:14;101905.86;;;10.32;73.70
51067;BME280;37112;45.892;-123.962;2023-06-01T09:36:38;101904.67;;;10.27;73.69
51067;BME280;37112;45.892;-123.962;2023-06-01T09:39:03;101902.84;;;10.24;73.91
51067;BME280;37112;45.892;-123.962;2023-06-01T09:44:33;101907.61;;;10.21;74.33
51067;BME280;37112;45.892;-123.962;2023-06-01T09:47:06;101905.90;;;10.19;74.37
51067;BME280;37112;45.892;-123.962;2023-06-01T09:49:32;101907.25;;;10.17;74.20
51067;BME280;37112;45.892;-123.962;2023-06-01T09:52:07;101904.96;;;10.13;74.29
51067;BME280;37112;45.892;-123.962;2023-06-01T09:54:29;101905.48;;;10.09;74.23
51067;BME280;37112;45.892;-123.962;2023-06-01T09:56:47;101898.55;;;10.06;74.30
51067;BME280;37112;45.892;-123.962;2023-06-01T09:59:29;101898.46;;;10.04;74.38
51067;BME280;37112;45.892;-123.962;2023-06-01T10:01:56;101903.05;;;10.00;74.38
51067;BME280;37112;45.892;-123.962;2023-06-01T10:04:21;101906.17;;;9.98;74.52
51067;BME280;37112;45.892;-123.962;2023-06-01T10:06:55;101904.31;;;9.96;74.50
51067;BME280;37112;45.892;-123.962;2023-06-01T10:09:28;101906.19;;;9.94;74.55
51067;BME280;37112;45.892;-123.962;2023-06-01T10:11:58;101904.39;;;9.91;74.62
51067;BME280;37112;45.892;-123.962;2023-06-01T10:14:16;101903.92;;;9.89;74.74
51067;BME280;37112;45.892;-123.962;2023-06-01T10:16:48;101905.33;;;9.86;74.68
51067;BME280;37112;45.892;-123.962;2023-06-01T10:19:18;101905.45;;;9.83;74.82
51067;BME280;37112;45.892;-123.962;2023-06-01T10:21:42;101909.63;;;9.81;74.86
51067;BME280;37112;45.892;-123.962;2023-06-01T10:24:14;101909.41;;;9.77;75.09
51067;BME280;37112;45.892;-123.962;2023-06-01T10:26:48;101905.94;;;9.76;75.24
51067;BME280;37112;45.892;-123.962;2023-06-01T10:29:22;101907.49;;;9.73;75.19
51067;BME280;37112;45.892;-123.962;2023-06-01T10:31:53;101905.76;;;9.72;75.35
51067;BME280;37112;45.892;-123.962;2023-06-01T10:34:08;101906.30;;;9.72;75.44
51067;BME280;37112;45.892;-123.962;2023-06-01T10:36:27;101902.76;;;9.72;75.59
51067;BME280;37112;45.892;-123.962;2023-06-01T10:42:34;101898.31;;;9.72;76.03
51067;BME280;37112;45.892;-123.962;2023-06-01T10:44:53;101893.31;;;9.73;76.18
51067;BME280;37112;45.892;-123.962;2023-06-01T10:52:29;101894.66;;;9.70;76.45
51067;BME280;37112;45.892;-123.962;2023-06-01T10:55:18;101897.10;;;9.71;76.57
51067;BME280;37112;45.892;-123.962;2023-06-01T10:57:53;101898.52;;;9.71;76.69
51067;BME280;37112;45.892;-123.962;2023-06-01T11:00:47;101899.80;;;9.71;76.64
51067;BME280;37112;45.892;-123.962;2023-06-01T11:03:13;101897.52;;;9.70;76.83
51067;BME280;37112;45.892;-123.962;2023-06-01T11:05:36;101894.30;;;9.71;76.89
51067;BME280;37112;45.892;-123.962;2023-06-01T11:08:08;101892.98;;;9.72;77.28
51067;BME280;37112;45.892;-123.962;2023-06-01T11:10:59;101896.11;;;9.74;77.44
51067;BME280;37112;45.892;-123.962;2023-06-01T11:13:32;101894.89;;;9.77;77.53
51067;BME280;37112;45.892;-123.962;2023-06-01T11:21:27;101893.09;;;9.82;77.84
51067;BME280;37112;45.892;-123.962;2023-06-01T11:23:53;101893.89;;;9.84;78.00
51067;BME280;37112;45.892;-123.962;2023-06-01T11:26:10;101891.52;;;9.85;78.02
51067;BME280;37112;45.892;-123.962;2023-06-01T11:28:34;101889.65;;;9.87;78.03
51067;BME280;37112;45.892;-123.962;2023-06-01T11:31:08;101892.42;;;9.89;78.18
51067;BME280;37112;45.892;-123.962;2023-06-01T11:33:25;101887.82;;;9.89;78.07
51067;BME280;37112;45.892;-123.962;2023-06-01T11:35:49;101887.87;;;9.87;77.97
51067;BME280;37112;45.892;-123.962;2023-06-01T11:38:20;101884.88;;;9.87;77.87
51067;BME280;37112;45.892;-123.962;2023-06-01T11:40:34;101880.42;;;9.87;78.08
51067;BME280;37112;45.892;-123.962;2023-06-01T11:43:07;101879.02;;;9.87;78.05
51067;BME280;37112;45.892;-123.962;2023-06-01T11:45:22;101883.33;;;9.86;78.10
51067;BME280;37112;45.892;-123.962;2023-06-01T11:47:55;101882.36;;;9.84;77.91
51067;BME280;37112;45.892;-123.962;2023-06-01T11:50:24;101888.47;;;9.82;77.82
51067;BME280;37112;45.892;-123.962;2023-06-01T11:52:46;101889.79;;;9.80;77.78
51067;BME280;37112;45.892;-123.962;2023-06-01T11:55:04;101887.96;;;9.77;77.81
51067;BME280;37112;45.892;-123.962;2023-06-01T11:57:29;101891.60;;;9.71;77.37
51067;BME280;37112;45.892;-123.962;2023-06-01T12:00:01;101891.73;;;9.65;77.23
51067;BME280;37112;45.892;-123.962;2023-06-01T12:02:20;101889.20;;;9.62;77.33
51067;BME280;37112;45.892;-123.962;2023-06-01T12:04:45;101889.16;;;9.59;77.34
51067;BME280;37112;45.892;-123.962;2023-06-01T12:07:27;101890.00;;;9.56;77.41
51067;BME280;37112;45.892;-123.962;2023-06-01T12:09:54;101889.25;;;9.53;77.46
51067;BME280;37112;45.892;-123.962;2023-06-01T12:12:19;101887.96;;;9.50;77.40
51067;BME280;37112;45.892;-123.962;2023-06-01T12:14:45;101886.29;;;9.48;77.44
51067;BME280;37112;45.892;-123.962;2023-06-01T12:17:16;101884.97;;;9.45;77.56
51067;BME280;37112;45.892;-123.962;2023-06-01T12:19:48;101890.19;;;9.44;77.59